sensor_id;sensor_type;location;lat;lon;timestamp;P1;durP1;ratioP1;P2;durP2;ratioP2
75207;SDS011;63795;55.684;37.864;2022-12-29T00:03:17;8.50;;;1.50;;
75207;SDS011;63795;55.684;37.864;2022-12-29T00:08:18;6.90;;;1.60;;
75207;SDS011;63795;55.684;37.864;2022-12-29T00:13:18;5.32;;;1.30;;
75207;SDS011;63795;55.684;37.864;2022-12-29T00:18:37;1.45;;;0.55;;
75207;SDS011;63795;55.684;37.864;2022-12-29T00:23:38;4.53;;;1.07;;
75207;SDS011;63795;55.684;37.864;2022-12-29T00:28:57;3.22;;;1.15;;
75207;SDS011;63795;55.684;37.864;2022-12-29T00:34:16;2.67;;;0.75;;
75207;SDS011;63795;55.684;37.864;2022-12-29T00:39:35;1.40;;;0.55;;
75207;SDS011;63795;55.684;37.864;2022-12-29T00:44:55;4.47;;;0.70;;
75207;SDS011;63795;55.684;37.864;2022-12-29T00:49:55;2.50;;;0.60;;
75207;SDS011;63795;55.684;37.864;2022-12-29T00:54:56;3.58;;;2.47;;
75207;SDS011;63795;55.684;37.864;2022-12-29T00:59:56;1.10;;;0.43;;
75207;SDS011;63795;55.684;37.864;2022-12-29T01:04:57;1.92;;;0.73;;
75207;SDS011;63795;55.684;37.864;2022-12-29T01:09:57;3.00;;;0.65;;
75207;SDS011;63795;55.684;37.864;2022-12-29T01:15:10;2.67;;;0.47;;
75207;SDS011;63795;55.684;37.864;2022-12-29T01:20:13;1.50;;;0.28;;
75207;SDS011;63795;55.684;37.864;2022-12-29T01:25:13;3.60;;;1.60;;
75207;SDS011;63795;55.684;37.864;2022-12-29T01:30:14;1.50;;;0.98;;
75207;SDS011;63795;55.684;37.864;2022-12-29T01:35:14;1.52;;;0.68;;
75207;SDS011;63795;55.684;37.864;2022-12-29T01:40:15;2.92;;;1.33;;
75207;SDS011;63795;55.684;37.864;2022-12-29T01:45:17;3.05;;;0.43;;
75207;SDS011;63795;55.684;37.864;2022-12-29T01:50:26;3.83;;;0.35;;
75207;SDS011;63795;55.684;37.864;2022-12-29T01:55:38;3.55;;;0.38;;
75207;SDS011;63795;55.684;37.864;2022-12-29T02:00:43;2.22;;;0.60;;
75207;SDS011;63795;55.684;37.864;2022-12-29T02:05:51;0.80;;;0.30;;
75207;SDS011;63795;55.684;37.864;2022-12-29T02:10:58;1.52;;;0.75;;
75207;SDS011;63795;55.684;37.864;2022-12-29T02:26:46;3.58;;;1.83;;
75207;SDS011;63795;55.684;37.864;2022-12-29T02:32:03;2.33;;;0.90;;
75207;SDS011;63795;55.684;37.864;2022-12-29T02:42:25;2.40;;;0.85;;
75207;SDS011;63795;55.684;37.864;2022-12-29T02:48:09;5.20;;;1.42;;
75207;SDS011;63795;55.684;37.864;2022-12-29T02:53:20;8.50;;;1.00;;
75207;SDS011;63795;55.684;37.864;2022-12-29T02:58:43;7.82;;;0.85;;
75207;SDS011;63795;55.684;37.864;2022-12-29T03:15:03;1.42;;;0.70;;
75207;SDS011;63795;55.684;37.864;2022-12-29T03:20:34;5.10;;;1.00;;
75207;SDS011;63795;55.684;37.864;2022-12-29T03:25:43;2.40;;;0.82;;
75207;SDS011;63795;55.684;37.864;2022-12-29T03:30:48;3.47;;;0.60;;
75207;SDS011;63795;55.684;37.864;2022-12-29T03:35:48;10.30;;;2.40;;
75207;SDS011;63795;55.684;37.864;2022-12-29T03:40:52;6.60;;;2.55;;
75207;SDS011;63795;55.684;37.864;2022-12-29T03:45:58;3.42;;;0.90;;
75207;SDS011;63795;55.684;37.864;2022-12-29T03:50:58;3.33;;;0.65;;
75207;SDS011;63795;55.684;37.864;2022-12-29T03:55:59;5.70;;;1.73;;
75207;SDS011;63795;55.684;37.864;2022-12-29T04:00:59;4.57;;;0.93;;
75207;SDS011;63795;55.684;37.864;2022-12-29T04:06:00;3.90;;;1.13;;
75207;SDS011;63795;55.684;37.864;2022-12-29T04:11:01;2.20;;;0.85;;
75207;SDS011;63795;55.684;37.864;2022-12-29T04:16:01;7.65;;;2.13;;
75207;SDS011;63795;55.684;37.864;2022-12-29T04:21:02;3.33;;;0.88;;
75207;SDS011;63795;55.684;37.864;2022-12-29T04:26:04;3.17;;;0.95;;
75207;SDS011;63795;55.684;37.864;2022-12-29T04:31:09;4.47;;;1.00;;
75207;SDS011;63795;55.684;37.864;2022-12-29T04:36:09;4.43;;;1.63;;
75207;SDS011;63795;55.684;37.864;2022-12-29T04:41:10;2.53;;;1.63;;
75207;SDS011;63795;55.684;37.864;2022-12-29T04:46:10;3.45;;;1.15;;
75207;SDS011;63795;55.684;37.864;2022-12-29T04:51:11;3.65;;;0.75;;
75207;SDS011;63795;55.684;37.864;2022-12-29T04:56:11;2.83;;;0.45;;
75207;SDS011;63795;55.684;37.864;2022-12-29T05:01:12;5.53;;;2.17;;
75207;SDS011;63795;55.684;37.864;2022-12-29T05:06:12;17.23;;;9.18;;
75207;SDS011;63795;55.684;37.864;2022-12-29T05:11:13;4.17;;;0.50;;
75207;SDS011;63795;55.684;37.864;2022-12-29T05:16:15;3.17;;;0.88;;
75207;SDS011;63795;55.684;37.864;2022-12-29T05:21:15;6.03;;;1.40;;
75207;SDS011;63795;55.684;37.864;2022-12-29T05:26:16;6.30;;;2.83;;
75207;SDS011;63795;55.684;37.864;2022-12-29T05:31:16;4.90;;;0.57;;
75207;SDS011;63795;55.684;37.864;2022-12-29T05:36:17;2.97;;;0.88;;
75207;SDS011;63795;55.684;37.864;2022-12-29T05:41:17;3.38;;;1.60;;
75207;SDS011;63795;55.684;37.864;2022-12-29T05:46:18;3.23;;;0.77;;
75207;SDS011;63795;55.684;37.864;2022-12-29T05:57:15;5.15;;;2.13;;
75207;SDS011;63795;55.684;37.864;2022-12-29T06:02:16;4.07;;;1.27;;
75207;SDS011;63795;55.684;37.864;2022-12-29T06:07:16;9.93;;;1.63;;
75207;SDS011;63795;55.684;37.864;2022-12-29T06:12:17;7.13;;;1.63;;
75207;SDS011;63795;55.684;37.864;2022-12-29T06:17:17;4.10;;;1.63;;
75207;SDS011;63795;55.684;37.864;2022-12-29T06:22:18;2.88;;;1.48;;
75207;SDS011;63795;55.684;37.864;2022-12-29T06:27:19;4.63;;;1.30;;
75207;SDS011;63795;55.684;37.864;2022-12-29T06:32:20;5.05;;;0.88;;
75207;SDS011;63795;55.684;37.864;2022-12-29T06:37:20;4.38;;;2.70;;
75207;SDS011;63795;55.684;37.864;2022-12-29T06:42:21;6.13;;;1.52;;
75207;SDS011;63795;55.684;37.864;2022-12-29T06:47:21;6.22;;;1.55;;
75207;SDS011;63795;55.684;37.864;2022-12-29T06:52:22;10.10;;;3.40;;
75207;SDS011;63795;55.684;37.864;2022-12-29T06:57:24;5.28;;;1.15;;
75207;SDS011;63795;55.684;37.864;2022-12-29T07:02:26;8.35;;;3.15;;
75207;SDS011;63795;55.684;37.864;2022-12-29T07:07:27;6.05;;;1.98;;
75207;SDS011;63795;55.684;37.864;2022-12-29T07:12:27;4.40;;;3.08;;
75207;SDS011;63795;55.684;37.864;2022-12-29T07:17:28;8.60;;;3.22;;
75207;SDS011;63795;55.684;37.864;2022-12-29T07:22:29;4.45;;;2.10;;
75207;SDS011;63795;55.684;37.864;2022-12-29T07:27:29;6.72;;;2.30;;
75207;SDS011;63795;55.684;37.864;2022-12-29T07:32:33;10.00;;;2.45;;
75207;SDS011;63795;55.684;37.864;2022-12-29T07:37:34;7.60;;;2.45;;
75207;SDS011;63795;55.684;37.864;2022-12-29T07:42:35;4.65;;;1.80;;
75207;SDS011;63795;55.684;37.864;2022-12-29T07:47:36;8.30;;;3.00;;
75207;SDS011;63795;55.684;37.864;2022-12-29T07:52:37;4.35;;;1.40;;
75207;SDS011;63795;55.684;37.864;2022-12-29T07:57:37;9.85;;;2.00;;
75207;SDS011;63795;55.684;37.864;2022-12-29T08:02:38;7.03;;;1.85;;
75207;SDS011;63795;55.684;37.864;2022-12-29T08:07:38;7.40;;;1.80;;
75207;SDS011;63795;55.684;37.864;2022-12-29T08:12:39;7.87;;;2.60;;
75207;SDS011;63795;55.684;37.864;2022-12-29T08:17:40;9.27;;;3.70;;
75207;SDS011;63795;55.684;37.864;2022-12-29T08:22:41;5.97;;;2.80;;
75207;SDS011;63795;55.684;37.864;2022-12-29T08:27:42;5.43;;;1.50;;
75207;SDS011;63795;55.684;37.864;2022-12-29T08:32:42;12.45;;;5.03;;
75207;SDS011;63795;55.684;37.864;2022-12-29T08:37:43;8.07;;;4.18;;
75207;SDS011;63795;55.684;37.864;2022-12-29T08:42:43;9.02;;;3.80;;
75207;SDS011;63795;55.684;37.864;2022-12-29T08:47:44;15.02;;;2.50;;
75207;SDS011;63795;55.684;37.864;2022-12-29T08:52:44;7.03;;;3.47;;
75207;SDS011;63795;55.684;37.864;2022-12-29T08:57:45;7.55;;;2.85;;
75207;SDS011;63795;55.684;37.864;2022-12-29T09:02:46;13.25;;;5.35;;
75207;SDS011;63795;55.684;37.864;2022-12-29T09:07:46;11.50;;;4.05;;
75207;SDS011;63795;55.684;37.864;2022-12-29T09:12:47;9.48;;;2.70;;
75207;SDS011;63795;55.684;37.864;2022-12-29T09:17:47;7.00;;;3.50;;
75207;SDS011;63795;55.684;37.864;2022-12-29T09:22:48;7.50;;;2.97;;
75207;SDS011;63795;55.684;37.864;2022-12-29T09:27:49;7.53;;;3.50;;
75207;SDS011;63795;55.684;37.864;2022-12-29T09:32:52;12.85;;;5.38;;
75207;SDS011;63795;55.684;37.864;2022-12-29T09:37:52;5.77;;;1.43;;
75207;SDS011;63795;55.684;37.864;2022-12-29T09:48:20;8.90;;;3.63;;
75207;SDS011;63795;55.684;37.864;2022-12-29T09:53:25;9.90;;;4.65;;
75207;SDS011;63795;55.684;37.864;2022-12-29T09:58:39;11.60;;;5.63;;
75207;SDS011;63795;55.684;37.864;2022-12-29T10:03:46;14.23;;;6.25;;
75207;SDS011;63795;55.684;37.864;2022-12-29T10:25:11;10.20;;;5.40;;
75207;SDS011;63795;55.684;37.864;2022-12-29T10:30:17;12.57;;;5.95;;
75207;SDS011;63795;55.684;37.864;2022-12-29T10:40:25;11.82;;;6.90;;
75207;SDS011;63795;55.684;37.864;2022-12-29T10:45:45;14.10;;;5.30;;
75207;SDS011;63795;55.684;37.864;2022-12-29T10:50:47;10.88;;;5.30;;
75207;SDS011;63795;55.684;37.864;2022-12-29T10:55:50;9.38;;;4.43;;
75207;SDS011;63795;55.684;37.864;2022-12-29T11:00:52;11.20;;;5.47;;
75207;SDS011;63795;55.684;37.864;2022-12-29T11:11:05;9.45;;;5.00;;
75207;SDS011;63795;55.684;37.864;2022-12-29T11:26:40;9.73;;;4.60;;
75207;SDS011;63795;55.684;37.864;2022-12-29T11:31:44;8.68;;;5.35;;
75207;SDS011;63795;55.684;37.864;2022-12-29T11:36:50;9.60;;;3.90;;
75207;SDS011;63795;55.684;37.864;2022-12-29T11:41:59;13.55;;;4.90;;
75207;SDS011;63795;55.684;37.864;2022-12-29T11:47:02;11.70;;;5.20;;
75207;SDS011;63795;55.684;37.864;2022-12-29T11:52:03;11.52;;;3.95;;
75207;SDS011;63795;55.684;37.864;2022-12-29T11:57:14;10.15;;;3.90;;
75207;SDS011;63795;55.684;37.864;2022-12-29T12:07:42;7.60;;;2.92;;
75207;SDS011;63795;55.684;37.864;2022-12-29T12:13:06;7.60;;;4.07;;
75207;SDS011;63795;55.684;37.864;2022-12-29T12:23:44;11.73;;;4.40;;
75207;SDS011;63795;55.684;37.864;2022-12-29T12:28:59;7.93;;;3.78;;
75207;SDS011;63795;55.684;37.864;2022-12-29T12:34:06;11.27;;;3.80;;
75207;SDS011;63795;55.684;37.864;2022-12-29T13:01:35;11.48;;;3.80;;
75207;SDS011;63795;55.684;37.864;2022-12-29T13:12:14;20.52;;;9.55;;
75207;SDS011;63795;55.684;37.864;2022-12-29T13:22:53;24.55;;;8.32;;
75207;SDS011;63795;55.684;37.864;2022-12-29T13:33:23;14.35;;;7.85;;
75207;SDS011;63795;55.684;37.864;2022-12-29T13:38:36;20.58;;;8.18;;
75207;SDS011;63795;55.684;37.864;2022-12-29T13:43:40;23.60;;;7.05;;
75207;SDS011;63795;55.684;37.864;2022-12-29T13:48:49;21.08;;;11.70;;
75207;SDS011;63795;55.684;37.864;2022-12-29T13:59:42;14.18;;;6.22;;
75207;SDS011;63795;55.684;37.864;2022-12-29T14:05:34;14.07;;;7.43;;
75207;SDS011;63795;55.684;37.864;2022-12-29T14:10:35;14.20;;;7.75;;
75207;SDS011;63795;55.684;37.864;2022-12-29T14:15:38;17.73;;;5.78;;
75207;SDS011;63795;55.684;37.864;2022-12-29T14:20:47;15.82;;;6.65;;
75207;SDS011;63795;55.684;37.864;2022-12-29T14:25:59;15.45;;;7.95;;
75207;SDS011;63795;55.684;37.864;2022-12-29T14:36:25;13.40;;;5.20;;
75207;SDS011;63795;55.684;37.864;2022-12-29T14:41:40;24.25;;;8.02;;
75207;SDS011;63795;55.684;37.864;2022-12-29T14:46:45;19.33;;;7.50;;
75207;SDS011;63795;55.684;37.864;2022-12-29T15:02:33;17.00;;;6.13;;
75207;SDS011;63795;55.684;37.864;2022-12-29T15:07:38;57.38;;;24.08;;
75207;SDS011;63795;55.684;37.864;2022-12-29T15:12:48;25.88;;;10.80;;
75207;SDS011;63795;55.684;37.864;2022-12-29T15:17:52;14.80;;;7.28;;
75207;SDS011;63795;55.684;37.864;2022-12-29T15:22:57;12.68;;;3.53;;
75207;SDS011;63795;55.684;37.864;2022-12-29T15:28:03;16.92;;;5.80;;
75207;SDS011;63795;55.684;37.864;2022-12-29T15:33:19;20.05;;;6.65;;
75207;SDS011;63795;55.684;37.864;2022-12-29T15:38:28;23.77;;;8.77;;
75207;SDS011;63795;55.684;37.864;2022-12-29T15:43:33;17.58;;;8.10;;
75207;SDS011;63795;55.684;37.864;2022-12-29T15:48:50;24.00;;;9.25;;
75207;SDS011;63795;55.684;37.864;2022-12-29T15:53:50;17.02;;;7.97;;
75207;SDS011;63795;55.684;37.864;2022-12-29T15:58:52;16.67;;;7.60;;
75207;SDS011;63795;55.684;37.864;2022-12-29T16:03:52;30.17;;;12.60;;
75207;SDS011;63795;55.684;37.864;2022-12-29T16:09:01;39.10;;;15.15;;
75207;SDS011;63795;55.684;37.864;2022-12-29T16:24:16;22.38;;;10.20;;
75207;SDS011;63795;55.684;37.864;2022-12-29T16:29:19;28.90;;;14.43;;
75207;SDS011;63795;55.684;37.864;2022-12-29T16:34:25;18.70;;;8.25;;
75207;SDS011;63795;55.684;37.864;2022-12-29T16:44:48;22.15;;;7.15;;
75207;SDS011;63795;55.684;37.864;2022-12-29T16:49:58;26.35;;;10.30;;
75207;SDS011;63795;55.684;37.864;2022-12-29T16:55:15;20.17;;;9.35;;
75207;SDS011;63795;55.684;37.864;2022-12-29T17:00:19;19.02;;;9.52;;
75207;SDS011;63795;55.684;37.864;2022-12-29T17:10:22;18.42;;;8.27;;
75207;SDS011;63795;55.684;37.864;2022-12-29T17:15:42;21.83;;;10.05;;
75207;SDS011;63795;55.684;37.864;2022-12-29T17:20:43;34.28;;;8.52;;
75207;SDS011;63795;55.684;37.864;2022-12-29T17:25:43;23.60;;;9.80;;
75207;SDS011;63795;55.684;37.864;2022-12-29T17:30:44;24.83;;;8.98;;
75207;SDS011;63795;55.684;37.864;2022-12-29T17:35:45;29.90;;;13.75;;
75207;SDS011;63795;55.684;37.864;2022-12-29T17:40:48;30.08;;;10.80;;
75207;SDS011;63795;55.684;37.864;2022-12-29T17:45:55;25.13;;;10.90;;
75207;SDS011;63795;55.684;37.864;2022-12-29T17:50:57;33.35;;;14.93;;
75207;SDS011;63795;55.684;37.864;2022-12-29T17:55:59;31.25;;;10.65;;
75207;SDS011;63795;55.684;37.864;2022-12-29T18:01:00;21.75;;;10.13;;
75207;SDS011;63795;55.684;37.864;2022-12-29T18:06:01;21.15;;;9.68;;
75207;SDS011;63795;55.684;37.864;2022-12-29T18:11:12;26.48;;;10.82;;
75207;SDS011;63795;55.684;37.864;2022-12-29T18:16:23;25.65;;;8.50;;
75207;SDS011;63795;55.684;37.864;2022-12-29T18:21:23;24.87;;;9.97;;
75207;SDS011;63795;55.684;37.864;2022-12-29T18:26:26;23.60;;;8.52;;
75207;SDS011;63795;55.684;37.864;2022-12-29T18:31:31;22.67;;;10.88;;
75207;SDS011;63795;55.684;37.864;2022-12-29T18:36:33;25.67;;;12.35;;
75207;SDS011;63795;55.684;37.864;2022-12-29T18:41:33;21.63;;;11.55;;
75207;SDS011;63795;55.684;37.864;2022-12-29T18:46:34;17.30;;;8.82;;
75207;SDS011;63795;55.684;37.864;2022-12-29T18:51:34;18.08;;;8.15;;
75207;SDS011;63795;55.684;37.864;2022-12-29T18:56:35;43.70;;;19.23;;
75207;SDS011;63795;55.684;37.864;2022-12-29T19:01:35;24.10;;;9.07;;
75207;SDS011;63795;55.684;37.864;2022-12-29T19:06:35;22.63;;;10.90;;
75207;SDS011;63795;55.684;37.864;2022-12-29T19:11:36;17.27;;;8.30;;
75207;SDS011;63795;55.684;37.864;2022-12-29T19:16:37;22.73;;;8.27;;
75207;SDS011;63795;55.684;37.864;2022-12-29T19:21:37;21.67;;;9.52;;
75207;SDS011;63795;55.684;37.864;2022-12-29T19:26:38;21.70;;;10.63;;
75207;SDS011;63795;55.684;37.864;2022-12-29T19:31:40;22.35;;;10.40;;
75207;SDS011;63795;55.684;37.864;2022-12-29T19:36:42;21.27;;;9.48;;
75207;SDS011;63795;55.684;37.864;2022-12-29T19:41:43;27.20;;;10.63;;
75207;SDS011;63795;55.684;37.864;2022-12-29T19:46:43;23.95;;;9.48;;
75207;SDS011;63795;55.684;37.864;2022-12-29T19:51:44;22.23;;;10.02;;
75207;SDS011;63795;55.684;37.864;2022-12-29T19:56:44;22.50;;;10.75;;
75207;SDS011;63795;55.684;37.864;2022-12-29T20:01:45;19.87;;;6.93;;
75207;SDS011;63795;55.684;37.864;2022-12-29T20:06:45;16.23;;;8.40;;
75207;SDS011;63795;55.684;37.864;2022-12-29T20:11:46;27.15;;;10.13;;
75207;SDS011;63795;55.684;37.864;2022-12-29T20:16:46;24.83;;;12.35;;
75207;SDS011;63795;55.684;37.864;2022-12-29T20:21:47;33.67;;;14.25;;
75207;SDS011;63795;55.684;37.864;2022-12-29T20:26:47;96.50;;;44.97;;
75207;SDS011;63795;55.684;37.864;2022-12-29T20:31:50;30.42;;;14.85;;
75207;SDS011;63795;55.684;37.864;2022-12-29T20:36:51;27.27;;;12.82;;
75207;SDS011;63795;55.684;37.864;2022-12-29T20:41:52;30.63;;;12.80;;
75207;SDS011;63795;55.684;37.864;2022-12-29T20:46:52;25.23;;;12.05;;
75207;SDS011;63795;55.684;37.864;2022-12-29T20:51:53;30.80;;;14.25;;
75207;SDS011;63795;55.684;37.864;2022-12-29T20:56:53;29.65;;;14.50;;
75207;SDS011;63795;55.684;37.864;2022-12-29T21:01:55;34.10;;;13.38;;
75207;SDS011;63795;55.684;37.864;2022-12-29T21:06:56;31.80;;;15.45;;
75207;SDS011;63795;55.684;37.864;2022-12-29T21:11:56;33.70;;;14.77;;
75207;SDS011;63795;55.684;37.864;2022-12-29T21:16:57;34.58;;;13.13;;
75207;SDS011;63795;55.684;37.864;2022-12-29T21:21:57;31.15;;;10.85;;
75207;SDS011;63795;55.684;37.864;2022-12-29T21:26:58;30.10;;;13.93;;
75207;SDS011;63795;55.684;37.864;2022-12-29T21:31:58;32.05;;;11.75;;
75207;SDS011;63795;55.684;37.864;2022-12-29T21:37:02;23.88;;;10.02;;
75207;SDS011;63795;55.684;37.864;2022-12-29T21:42:02;25.90;;;10.82;;
75207;SDS011;63795;55.684;37.864;2022-12-29T21:47:03;34.15;;;13.57;;
75207;SDS011;63795;55.684;37.864;2022-12-29T21:52:03;31.10;;;12.75;;
75207;SDS011;63795;55.684;37.864;2022-12-29T21:57:04;24.80;;;11.38;;
75207;SDS011;63795;55.684;37.864;2022-12-29T22:02:12;29.02;;;11.57;;
75207;SDS011;63795;55.684;37.864;2022-12-29T22:07:41;32.20;;;11.55;;
75207;SDS011;63795;55.684;37.864;2022-12-29T22:12:59;29.23;;;10.23;;
75207;SDS011;63795;55.684;37.864;2022-12-29T22:18:02;31.88;;;11.07;;
75207;SDS011;63795;55.684;37.864;2022-12-29T22:23:03;34.28;;;15.27;;
75207;SDS011;63795;55.684;37.864;2022-12-29T22:28:04;35.40;;;15.05;;
75207;SDS011;63795;55.684;37.864;2022-12-29T22:33:04;30.52;;;11.48;;
75207;SDS011;63795;55.684;37.864;2022-12-29T22:38:06;34.75;;;15.52;;
75207;SDS011;63795;55.684;37.864;2022-12-29T22:43:06;41.30;;;18.27;;
75207;SDS011;63795;55.684;37.864;2022-12-29T22:48:07;30.85;;;14.90;;
75207;SDS011;63795;55.684;37.864;2022-12-29T22:53:07;35.38;;;10.15;;
75207;SDS011;63795;55.684;37.864;2022-12-29T22:58:08;35.80;;;12.57;;
75207;SDS011;63795;55.684;37.864;2022-12-29T23:03:08;36.50;;;13.67;;
75207;SDS011;63795;55.684;37.864;2022-12-29T23:08:09;32.47;;;14.43;;
75207;SDS011;63795;55.684;37.864;2022-12-29T23:13:10;25.63;;;10.87;;
75207;SDS011;63795;55.684;37.864;2022-12-29T23:18:10;29.70;;;9.67;;
75207;SDS011;63795;55.684;37.864;2022-12-29T23:23:11;32.28;;;12.95;;
75207;SDS011;63795;55.684;37.864;2022-12-29T23:28:11;37.47;;;11.98;;
75207;SDS011;63795;55.684;37.864;2022-12-29T23:33:12;39.40;;;15.73;;
75207;SDS011;63795;55.684;37.864;2022-12-29T23:38:12;39.67;;;14.87;;
75207;SDS011;63795;55.684;37.864;2022-12-29T23:43:12;31.87;;;16.57;;
75207;SDS011;63795;55.684;37.864;2022-12-29T23:48:13;33.97;;;13.83;;
75207;SDS011;63795;55.684;37.864;2022-12-29T23:53:13;35.75;;;11.95;;
75207;SDS011;63795;55.684;37.864;2022-12-29T23:58:14;40.53;;;13.38;;
